Time;durP1;ratioP1;P1;durP2;ratioP2;P2;SDS_P1;SDS_P2;PMS_P1;PMS_P2;Temp;Humidity;BMP_temperature;BMP_pressure;BME280_temperature;BME280_humidity;BME280_pressure;Samples;Min_cycle;Max_cycle;Signal;HPM_P1;HPM_P2
2021/07/20 00:00:37;;;;;;;12.90;10.13;;;;;;;;;;4936532;28;20438;-78
2021/07/20 00:03:06;;;;;;;13.90;10.30;;;;;;;;;;4925513;29;20461;-78
2021/07/20 00:05:34;;;;;;;16.90;10.03;;;;;;;;;;4933891;29;20508;-79
2021/07/20 00:08:02;;;;;;;15.43;10.20;;;;;;;;;;4933248;29;20483;-79
2021/07/20 00:10:31;;;;;;;12.47;9.10;;;;;;;;;;4911154;29;20441;-78
2021/07/20 00:12:59;;;;;;;15.40;9.57;;;;;;;;;;4935175;29;20446;-78
2021/07/20 00:15:26;;;;;;;12.93;10.07;;;;;;;;;;4940353;28;20438;-78
2021/07/20 00:17:54;;;;;;;14.50;10.10;;;;;;;;;;4930241;29;20479;-78
2021/07/20 00:20:22;;;;;;;14.57;10.60;;;;;;;;;;4910788;29;20752;-78
2021/07/20 00:22:51;;;;;;;14.13;9.37;;;;;;;;;;4926246;29;20462;-78
2021/07/20 00:25:18;;;;;;;15.10;10.00;;;;;;;;;;4925459;29;20445;-78
2021/07/20 00:27:45;;;;;;;12.07;9.47;;;;;;;;;;4935072;28;20823;-78
2021/07/20 00:30:13;;;;;;;14.40;10.37;;;;;;;;;;4944567;28;20456;-78
2021/07/20 00:32:41;;;;;;;14.43;10.00;;;;;;;;;;4919819;29;21203;-78
2021/07/20 00:35:09;;;;;;;16.60;10.70;;;;;;;;;;4932500;28;20469;-78
2021/07/20 00:37:37;;;;;;;15.13;10.37;;;;;;;;;;4908525;29;20478;-79
2021/07/20 00:40:07;;;;;;;15.30;10.30;;;;;;;;;;4940491;29;20826;-77
2021/07/20 00:42:34;;;;;;;13.63;10.50;;;;;;;;;;4934616;29;20457;-78
2021/07/20 00:45:01;;;;;;;14.27;11.03;;;;;;;;;;4927023;29;20466;-78
2021/07/20 00:47:28;;;;;;;12.57;9.10;;;;;;;;;;4932339;29;20424;-77
2021/07/20 00:49:55;;;;;;;16.57;11.27;;;;;;;;;;4931525;29;20482;-79
2021/07/20 00:52:23;;;;;;;21.57;11.80;;;;;;;;;;4929551;29;20466;-78
2021/07/20 00:54:50;;;;;;;15.23;11.10;;;;;;;;;;4934188;29;20826;-78
2021/07/20 00:57:18;;;;;;;14.20;10.17;;;;;;;;;;4928081;29;20957;-78
2021/07/20 00:59:46;;;;;;;15.33;11.10;;;;;;;;;;4933205;29;20642;-78
2021/07/20 01:02:14;;;;;;;14.87;10.87;;;;;;;;;;4935698;29;20451;-78
2021/07/20 01:04:41;;;;;;;14.50;11.47;;;;;;;;;;4927991;29;20466;-79
2021/07/20 01:07:10;;;;;;;15.73;10.93;;;;;;;;;;4924795;29;20462;-78
2021/07/20 01:09:37;;;;;;;17.37;12.17;;;;;;;;;;4931216;29;20468;-77
2021/07/20 01:12:05;;;;;;;15.17;10.50;;;;;;;;;;4919168;29;20677;-77
2021/07/20 01:14:34;;;;;;;13.90;10.30;;;;;;;;;;4917846;29;20743;-78
2021/07/20 01:17:01;;;;;;;20.23;10.27;;;;;;;;;;4926741;29;20949;-78
2021/07/20 01:19:32;;;;;;;13.43;10.30;;;;;;;;;;4927636;29;20840;-79
2021/07/20 01:21:59;;;;;;;15.23;9.43;;;;;;;;;;4935808;29;20457;-77
2021/07/20 01:24:28;;;;;;;12.27;9.90;;;;;;;;;;4932330;29;20465;-78
2021/07/20 01:26:55;;;;;;;14.70;10.10;;;;;;;;;;4923512;29;20471;-77
2021/07/20 01:29:23;;;;;;;13.50;10.00;;;;;;;;;;4923829;29;20857;-79
2021/07/20 01:31:50;;;;;;;14.20;10.40;;;;;;;;;;4931421;29;20441;-78
2021/07/20 01:34:18;;;;;;;15.50;10.20;;;;;;;;;;4927455;29;20437;-79
2021/07/20 01:36:47;;;;;;;15.00;10.33;;;;;;;;;;4931020;29;20466;-78
2021/07/20 01:39:15;;;;;;;16.50;11.37;;;;;;;;;;4925662;29;20508;-79
2021/07/20 01:41:43;;;;;;;15.90;9.20;;;;;;;;;;4933421;29;20458;-77
2021/07/20 01:44:11;;;;;;;12.37;10.10;;;;;;;;;;4918566;29;20450;-78
2021/07/20 01:46:40;;;;;;;13.60;10.57;;;;;;;;;;4910548;29;21073;-79
2021/07/20 01:49:08;;;;;;;13.90;9.83;;;;;;;;;;4930386;29;20489;-79
2021/07/20 01:51:36;;;;;;;17.50;11.30;;;;;;;;;;4932412;29;20450;-78
2021/07/20 01:54:03;;;;;;;15.97;10.10;;;;;;;;;;4924664;29;20485;-78
2021/07/20 01:56:30;;;;;;;12.70;9.80;;;;;;;;;;4932883;29;20447;-78
2021/07/20 01:58:59;;;;;;;13.50;9.73;;;;;;;;;;4930975;29;20495;-79
2021/07/20 02:01:28;;;;;;;14.33;10.73;;;;;;;;;;4927244;29;20477;-78
2021/07/20 02:04:13;;;;;;;14.37;10.33;;;;;;;;;;4930854;29;20465;-78
2021/07/20 02:09:25;;;;;;;13.53;9.90;;;;;;;;;;4931468;29;20650;-78
2021/07/20 02:11:53;;;;;;;14.97;10.60;;;;;;;;;;4916301;29;20802;-79
2021/07/20 02:14:23;;;;;;;13.90;10.90;;;;;;;;;;4906594;29;20467;-78
2021/07/20 02:16:51;;;;;;;14.40;10.23;;;;;;;;;;4919627;29;21162;-79
2021/07/20 02:19:21;;;;;;;14.23;9.90;;;;;;;;;;4918402;29;21113;-78
2021/07/20 02:21:50;;;;;;;16.07;11.10;;;;;;;;;;4929307;29;20457;-79
2021/07/20 02:24:18;;;;;;;14.20;10.33;;;;;;;;;;4936959;29;20447;-79
2021/07/20 02:26:47;;;;;;;16.80;10.93;;;;;;;;;;4933455;29;20469;-77
2021/07/20 02:29:14;;;;;;;18.20;10.80;;;;;;;;;;4922292;29;20554;-79
2021/07/20 02:31:44;;;;;;;13.40;9.60;;;;;;;;;;4933071;29;20840;-79
2021/07/20 02:34:11;;;;;;;13.10;9.50;;;;;;;;;;4918438;29;20450;-79
2021/07/20 02:36:39;;;;;;;16.70;10.73;;;;;;;;;;4926332;29;20465;-78
2021/07/20 02:39:07;;;;;;;14.70;10.53;;;;;;;;;;4931075;29;20499;-78
2021/07/20 02:41:34;;;;;;;13.27;8.90;;;;;;;;;;4932101;29;20529;-78
2021/07/20 02:44:02;;;;;;;18.00;9.90;;;;;;;;;;4935684;29;20453;-78
2021/07/20 02:46:30;;;;;;;13.07;9.07;;;;;;;;;;4928026;29;20831;-79
2021/07/20 02:48:58;;;;;;;15.40;10.07;;;;;;;;;;4916670;29;20494;-78
2021/07/20 02:51:26;;;;;;;14.90;10.33;;;;;;;;;;4917113;29;20454;-79
2021/07/20 02:53:54;;;;;;;15.30;10.20;;;;;;;;;;4905272;29;20841;-78
2021/07/20 02:56:21;;;;;;;18.73;12.57;;;;;;;;;;4922781;29;20465;-79
2021/07/20 02:58:49;;;;;;;14.60;10.00;;;;;;;;;;4924597;29;20856;-78
2021/07/20 03:01:17;;;;;;;18.00;10.17;;;;;;;;;;4932133;29;20465;-78
2021/07/20 03:03:45;;;;;;;16.77;10.53;;;;;;;;;;4928708;29;20540;-78
2021/07/20 03:06:14;;;;;;;13.67;9.57;;;;;;;;;;4936190;29;20813;-78
2021/07/20 03:08:42;;;;;;;12.87;9.20;;;;;;;;;;4934446;29;20499;-78
2021/07/20 03:11:11;;;;;;;20.33;10.20;;;;;;;;;;4920078;29;20860;-78
2021/07/20 03:13:40;;;;;;;15.77;9.60;;;;;;;;;;4938077;29;20824;-78
2021/07/20 03:16:08;;;;;;;16.17;10.33;;;;;;;;;;4927441;29;20464;-79
2021/07/20 03:18:38;;;;;;;15.70;10.30;;;;;;;;;;4919723;29;20992;-78
2021/07/20 03:21:05;;;;;;;16.60;10.00;;;;;;;;;;4917789;29;20443;-78
2021/07/20 03:23:34;;;;;;;19.10;10.43;;;;;;;;;;4927335;29;20466;-79
2021/07/20 03:26:02;;;;;;;15.67;10.00;;;;;;;;;;4935981;29;20843;-78
2021/07/20 03:28:30;;;;;;;18.97;10.87;;;;;;;;;;4926057;29;20992;-79
2021/07/20 03:30:57;;;;;;;15.93;9.83;;;;;;;;;;4914516;29;20507;-78
2021/07/20 03:33:25;;;;;;;14.90;9.40;;;;;;;;;;4947622;28;20459;-78
2021/07/20 03:35:53;;;;;;;14.77;10.10;;;;;;;;;;4939259;29;20477;-78
2021/07/20 03:38:21;;;;;;;15.60;10.07;;;;;;;;;;4935214;29;20815;-78
2021/07/20 03:40:51;;;;;;;14.20;8.87;;;;;;;;;;4920754;29;20488;-78
2021/07/20 03:43:19;;;;;;;14.67;10.47;;;;;;;;;;4926817;29;20829;-78
2021/07/20 03:45:47;;;;;;;15.93;9.23;;;;;;;;;;4933884;29;20444;-78
2021/07/20 03:48:14;;;;;;;15.17;9.03;;;;;;;;;;4916639;29;20985;-78
2021/07/20 03:50:42;;;;;;;21.27;10.20;;;;;;;;;;4922383;29;20497;-78
2021/07/20 03:53:09;;;;;;;12.37;8.77;;;;;;;;;;4935054;29;20457;-78
2021/07/20 03:55:37;;;;;;;17.83;10.40;;;;;;;;;;4939910;28;20477;-78
2021/07/20 03:58:06;;;;;;;17.10;9.73;;;;;;;;;;4925788;29;20491;-77
2021/07/20 04:00:34;;;;;;;14.60;9.03;;;;;;;;;;4934421;29;20454;-79
2021/07/20 04:05:44;;;;;;;15.43;10.07;;;;;;;;;;4897082;29;20451;-78
2021/07/20 04:08:13;;;;;;;16.30;11.57;;;;;;;;;;4922841;28;20492;-78
2021/07/20 04:10:41;;;;;;;16.63;10.73;;;;;;;;;;4910549;29;20527;-79
2021/07/20 04:13:10;;;;;;;18.63;11.60;;;;;;;;;;4932652;29;20465;-78
2021/07/20 04:15:39;;;;;;;16.23;10.27;;;;;;;;;;4917826;29;20818;-78
2021/07/20 04:18:07;;;;;;;17.43;11.20;;;;;;;;;;4925918;29;20544;-78
2021/07/20 04:20:34;;;;;;;21.10;11.47;;;;;;;;;;4934567;29;20453;-78
2021/07/20 04:23:01;;;;;;;16.73;11.10;;;;;;;;;;4938327;28;20453;-77
2021/07/20 04:25:29;;;;;;;20.13;10.80;;;;;;;;;;4926311;29;20469;-78
2021/07/20 04:27:56;;;;;;;17.90;11.80;;;;;;;;;;4934105;29;21009;-79
2021/07/20 04:30:25;;;;;;;16.93;11.40;;;;;;;;;;4932723;29;20976;-80
2021/07/20 04:32:54;;;;;;;20.97;11.43;;;;;;;;;;4915808;29;20853;-78
2021/07/20 04:35:21;;;;;;;16.40;9.57;;;;;;;;;;4920971;29;20554;-78
2021/07/20 04:37:48;;;;;;;16.53;10.80;;;;;;;;;;4928408;29;20481;-79
2021/07/20 04:40:16;;;;;;;17.57;10.57;;;;;;;;;;4932902;29;20493;-78
2021/07/20 04:42:44;;;;;;;20.50;10.93;;;;;;;;;;4928455;29;20827;-78
2021/07/20 04:45:12;;;;;;;13.53;10.13;;;;;;;;;;4916384;29;20452;-78
2021/07/20 04:47:41;;;;;;;17.70;11.20;;;;;;;;;;4926868;29;20472;-78
2021/07/20 04:50:09;;;;;;;17.57;10.60;;;;;;;;;;4918105;29;20859;-79
2021/07/20 04:52:36;;;;;;;16.73;10.70;;;;;;;;;;4914448;29;20462;-79
2021/07/20 04:55:04;;;;;;;18.97;11.17;;;;;;;;;;4932489;29;20466;-78
2021/07/20 04:57:32;;;;;;;16.20;11.20;;;;;;;;;;4933896;29;20489;-78
2021/07/20 04:59:59;;;;;;;16.03;11.30;;;;;;;;;;4923100;29;20660;-79
2021/07/20 05:02:27;;;;;;;20.70;12.03;;;;;;;;;;4930805;29;20458;-78
2021/07/20 05:04:55;;;;;;;17.33;11.50;;;;;;;;;;4938822;28;20475;-78
2021/07/20 05:07:23;;;;;;;16.40;10.90;;;;;;;;;;4930338;29;20810;-79
2021/07/20 05:09:52;;;;;;;18.50;10.87;;;;;;;;;;4933144;29;20478;-77
2021/07/20 05:12:19;;;;;;;18.40;10.50;;;;;;;;;;4926264;29;20903;-78
2021/07/20 05:14:47;;;;;;;18.33;11.60;;;;;;;;;;4918246;29;20463;-78
2021/07/20 05:17:14;;;;;;;13.83;9.13;;;;;;;;;;4915400;29;20425;-77
2021/07/20 05:19:41;;;;;;;19.20;9.93;;;;;;;;;;4942236;28;20466;-78
2021/07/20 05:22:10;;;;;;;13.50;9.53;;;;;;;;;;4935783;29;20421;-79
2021/07/20 05:24:37;;;;;;;15.93;10.77;;;;;;;;;;4934278;29;20438;-78
2021/07/20 05:27:05;;;;;;;13.30;9.80;;;;;;;;;;4934663;29;20442;-77
2021/07/20 05:29:32;;;;;;;15.83;9.40;;;;;;;;;;4931468;29;20465;-78
2021/07/20 05:32:00;;;;;;;18.60;10.43;;;;;;;;;;4926101;29;20461;-78
2021/07/20 05:34:27;;;;;;;13.67;9.50;;;;;;;;;;4926921;29;20505;-78
2021/07/20 05:36:55;;;;;;;12.20;9.37;;;;;;;;;;4926157;29;20451;-79
2021/07/20 05:39:24;;;;;;;11.57;9.40;;;;;;;;;;4933780;29;20840;-79
2021/07/20 05:41:52;;;;;;;16.30;10.60;;;;;;;;;;4933307;29;20978;-79
2021/07/20 05:44:22;;;;;;;16.67;10.97;;;;;;;;;;4917468;29;20473;-78
2021/07/20 05:46:50;;;;;;;11.67;9.03;;;;;;;;;;4925210;29;20719;-78
2021/07/20 05:49:17;;;;;;;11.70;9.33;;;;;;;;;;4927498;29;20481;-78
2021/07/20 05:51:44;;;;;;;14.47;9.50;;;;;;;;;;4930817;29;20438;-78
2021/07/20 05:54:12;;;;;;;14.47;10.00;;;;;;;;;;4926676;29;20857;-77
2021/07/20 05:56:42;;;;;;;16.00;11.20;;;;;;;;;;4920331;29;20465;-76
2021/07/20 05:59:09;;;;;;;14.40;10.57;;;;;;;;;;4931752;29;20476;-77
2021/07/20 06:01:37;;;;;;;17.10;10.93;;;;;;;;;;4933634;29;20607;-76
2021/07/20 06:04:05;;;;;;;13.50;10.93;;;;;;;;;;4927169;29;20474;-75
2021/07/20 06:06:32;;;;;;;14.33;9.50;;;;;;;;;;4918480;29;20473;-73
2021/07/20 06:09:01;;;;;;;12.47;9.70;;;;;;;;;;4915128;29;20491;-75
2021/07/20 06:11:29;;;;;;;15.80;11.10;;;;;;;;;;4913451;29;20479;-73
2021/07/20 06:13:58;;;;;;;14.90;9.63;;;;;;;;;;4914394;29;20467;-75
2021/07/20 06:16:27;;;;;;;14.33;10.17;;;;;;;;;;4926898;29;20852;-75
2021/07/20 06:18:55;;;;;;;15.40;9.10;;;;;;;;;;4927561;29;20968;-75
2021/07/20 06:21:24;;;;;;;13.10;10.30;;;;;;;;;;4926453;29;20470;-75
2021/07/20 06:23:52;;;;;;;14.27;11.10;;;;;;;;;;4921108;29;20458;-79
2021/07/20 06:26:19;;;;;;;13.37;10.63;;;;;;;;;;4906004;29;20515;-77
2021/07/20 06:28:47;;;;;;;13.63;10.37;;;;;;;;;;4923162;29;20467;-77
2021/07/20 06:31:17;;;;;;;11.97;9.87;;;;;;;;;;4920986;29;20502;-78
2021/07/20 06:33:45;;;;;;;16.53;11.37;;;;;;;;;;4902085;29;20467;-76
2021/07/20 06:36:14;;;;;;;13.93;10.80;;;;;;;;;;4920499;29;20469;-76
2021/07/20 06:38:41;;;;;;;13.13;10.70;;;;;;;;;;4901734;29;20482;-77
2021/07/20 06:41:09;;;;;;;12.50;9.63;;;;;;;;;;4925229;29;20483;-75
2021/07/20 06:43:37;;;;;;;13.20;10.67;;;;;;;;;;4913825;29;20448;-75
2021/07/20 06:46:06;;;;;;;13.57;9.77;;;;;;;;;;4916786;29;20843;-74
2021/07/20 06:48:35;;;;;;;13.80;9.97;;;;;;;;;;4921185;29;21426;-75
2021/07/20 06:51:02;;;;;;;12.10;9.77;;;;;;;;;;4926999;29;20486;-75
2021/07/20 06:53:29;;;;;;;13.30;10.00;;;;;;;;;;4924248;29;20466;-74
2021/07/20 06:55:58;;;;;;;11.27;9.97;;;;;;;;;;4926449;29;20462;-75
2021/07/20 06:58:26;;;;;;;16.10;10.53;;;;;;;;;;4932648;29;20498;-75
2021/07/20 07:00:54;;;;;;;15.70;10.77;;;;;;;;;;4931867;28;20474;-75
2021/07/20 07:03:23;;;;;;;16.80;10.43;;;;;;;;;;4921684;29;21025;-75
2021/07/20 07:05:54;;;;;;;12.30;9.97;;;;;;;;;;4905518;29;20481;-74
2021/07/20 07:08:22;;;;;;;12.57;9.83;;;;;;;;;;4918745;29;20485;-75
2021/07/20 07:10:50;;;;;;;11.83;9.63;;;;;;;;;;4921612;29;20845;-75
2021/07/20 07:13:18;;;;;;;14.90;10.10;;;;;;;;;;4930980;28;20466;-74
2021/07/20 07:15:45;;;;;;;13.47;10.37;;;;;;;;;;4941698;28;20845;-75
2021/07/20 07:18:13;;;;;;;11.63;10.13;;;;;;;;;;4922885;29;20483;-75
2021/07/20 07:20:41;;;;;;;12.67;9.30;;;;;;;;;;4921036;29;20465;-75
2021/07/20 07:23:09;;;;;;;12.93;8.67;;;;;;;;;;4932207;29;20459;-75
2021/07/20 07:25:37;;;;;;;9.93;9.00;;;;;;;;;;4928358;29;20707;-76
2021/07/20 07:28:05;;;;;;;11.03;9.47;;;;;;;;;;4926963;29;20474;-75
2021/07/20 07:30:33;;;;;;;14.50;10.23;;;;;;;;;;4927786;29;20486;-75
2021/07/20 07:33:00;;;;;;;12.63;9.10;;;;;;;;;;4935620;29;20453;-75
2021/07/20 07:35:29;;;;;;;13.00;9.63;;;;;;;;;;4930495;29;20801;-75
2021/07/20 07:37:58;;;;;;;11.33;9.53;;;;;;;;;;4928415;29;20482;-76
2021/07/20 07:40:28;;;;;;;12.43;10.60;;;;;;;;;;4951855;29;20801;-76
2021/07/20 07:42:55;;;;;;;14.70;10.80;;;;;;;;;;4935141;29;20517;-76
2021/07/20 07:45:23;;;;;;;9.97;8.40;;;;;;;;;;4935217;29;20456;-76
2021/07/20 07:47:50;;;;;;;13.87;10.40;;;;;;;;;;4933150;29;20821;-75
2021/07/20 07:50:19;;;;;;;11.37;9.03;;;;;;;;;;4932260;29;20742;-76
2021/07/20 07:52:46;;;;;;;11.20;8.83;;;;;;;;;;4929338;29;20463;-76
2021/07/20 07:55:14;;;;;;;13.40;10.87;;;;;;;;;;4928889;29;20462;-76
2021/07/20 07:57:44;;;;;;;13.40;9.90;;;;;;;;;;4929376;29;21066;-76
2021/07/20 08:00:12;;;;;;;10.90;9.60;;;;;;;;;;4911073;29;20470;-76
2021/07/20 08:02:40;;;;;;;14.00;10.20;;;;;;;;;;4926265;29;20467;-75
2021/07/20 08:05:08;;;;;;;12.93;10.30;;;;;;;;;;4925532;29;20560;-76
2021/07/20 08:07:45;;;;;;;11.43;9.60;;;;;;;;;;4928742;29;20856;-77
2021/07/20 08:10:13;;;;;;;12.40;9.37;;;;;;;;;;4927811;29;20561;-76
2021/07/20 08:12:43;;;;;;;11.13;9.90;;;;;;;;;;4930161;29;20455;-75
2021/07/20 08:15:14;;;;;;;14.70;10.63;;;;;;;;;;4925974;29;20443;-76
2021/07/20 08:17:41;;;;;;;13.07;9.20;;;;;;;;;;4919616;29;20486;-73
2021/07/20 08:20:11;;;;;;;13.90;9.50;;;;;;;;;;4924041;29;20474;-75
2021/07/20 08:22:39;;;;;;;13.37;8.10;;;;;;;;;;4933714;29;20944;-75
2021/07/20 08:25:08;;;;;;;10.77;8.97;;;;;;;;;;4925483;29;20473;-75
2021/07/20 08:27:40;;;;;;;11.50;9.30;;;;;;;;;;4917440;29;20488;-74
2021/07/20 08:30:08;;;;;;;11.10;9.57;;;;;;;;;;4931795;29;20463;-75
2021/07/20 08:32:37;;;;;;;12.30;9.00;;;;;;;;;;4930810;29;20486;-75
2021/07/20 08:35:07;;;;;;;10.70;8.73;;;;;;;;;;4917002;29;20790;-76
2021/07/20 08:37:35;;;;;;;10.80;9.10;;;;;;;;;;4926378;29;20488;-74
2021/07/20 08:40:03;;;;;;;15.27;8.97;;;;;;;;;;4928383;29;20492;-75
2021/07/20 08:42:37;;;;;;;10.57;8.37;;;;;;;;;;4914427;29;20479;-73
2021/07/20 08:45:09;;;;;;;12.30;7.90;;;;;;;;;;4931403;29;20537;-75
2021/07/20 08:47:50;;;;;;;10.43;8.33;;;;;;;;;;4919986;29;20491;-75
2021/07/20 08:50:21;;;;;;;11.83;8.63;;;;;;;;;;4919027;29;20795;-75
2021/07/20 08:52:49;;;;;;;14.60;8.33;;;;;;;;;;4931910;29;20463;-75
2021/07/20 08:55:19;;;;;;;10.27;9.10;;;;;;;;;;4931825;29;20463;-76
2021/07/20 08:57:49;;;;;;;12.40;9.33;;;;;;;;;;4929809;29;20482;-75
2021/07/20 09:00:18;;;;;;;10.80;8.27;;;;;;;;;;4924878;29;20467;-73
2021/07/20 09:02:51;;;;;;;11.50;8.10;;;;;;;;;;4912972;29;20964;-73
2021/07/20 09:05:23;;;;;;;11.70;7.50;;;;;;;;;;4927430;29;20473;-73
2021/07/20 09:08:00;;;;;;;12.47;9.07;;;;;;;;;;4914133;29;20472;-74
2021/07/20 09:10:31;;;;;;;11.10;8.60;;;;;;;;;;4921407;29;20987;-73
2021/07/20 09:12:58;;;;;;;10.40;8.43;;;;;;;;;;4914340;29;20439;-74
2021/07/20 09:15:27;;;;;;;12.47;8.90;;;;;;;;;;4916876;29;20459;-74
2021/07/20 09:18:05;;;;;;;10.70;9.50;;;;;;;;;;4932821;29;20567;-74
2021/07/20 09:20:34;;;;;;;10.73;8.67;;;;;;;;;;4916325;29;20448;-75
2021/07/20 09:23:02;;;;;;;10.63;9.20;;;;;;;;;;4911445;29;20465;-74
2021/07/20 09:25:32;;;;;;;10.37;8.10;;;;;;;;;;4916487;29;20459;-75
2021/07/20 09:28:02;;;;;;;12.87;9.23;;;;;;;;;;4919732;29;20530;-75
2021/07/20 09:30:31;;;;;;;12.63;9.17;;;;;;;;;;4934060;29;20458;-74
2021/07/20 09:33:05;;;;;;;12.33;9.00;;;;;;;;;;4930010;29;20468;-74
2021/07/20 09:35:36;;;;;;;13.23;8.80;;;;;;;;;;4920147;29;20460;-74
2021/07/20 09:38:09;;;;;;;12.63;8.83;;;;;;;;;;4913169;29;20485;-73
2021/07/20 09:40:41;;;;;;;13.20;8.37;;;;;;;;;;4931362;29;20846;-75
2021/07/20 09:43:10;;;;;;;14.10;9.50;;;;;;;;;;4911804;29;20484;-74
2021/07/20 09:45:40;;;;;;;12.00;9.67;;;;;;;;;;4919288;29;20462;-74
2021/07/20 09:48:22;;;;;;;11.07;8.10;;;;;;;;;;4919316;29;20475;-75
2021/07/20 09:50:51;;;;;;;11.10;9.17;;;;;;;;;;4915705;29;20951;-75
2021/07/20 09:53:31;;;;;;;11.67;8.90;;;;;;;;;;4926253;29;20474;-74
2021/07/20 09:56:07;;;;;;;12.23;9.90;;;;;;;;;;4923576;29;20461;-75
2021/07/20 09:58:37;;;;;;;13.60;9.90;;;;;;;;;;4927783;29;20462;-75
2021/07/20 10:01:06;;;;;;;12.70;9.27;;;;;;;;;;4930565;29;20461;-75
2021/07/20 10:03:45;;;;;;;10.20;8.90;;;;;;;;;;4929677;29;20453;-74
2021/07/20 10:06:17;;;;;;;12.97;9.00;;;;;;;;;;4929503;29;20958;-74
2021/07/20 10:08:50;;;;;;;12.00;9.97;;;;;;;;;;4912453;29;20479;-75
2021/07/20 10:11:21;;;;;;;14.17;10.47;;;;;;;;;;4926173;29;20486;-75
2021/07/20 10:13:56;;;;;;;10.13;8.90;;;;;;;;;;4915568;29;20820;-75
2021/07/20 10:16:25;;;;;;;14.63;8.90;;;;;;;;;;4929978;29;20457;-75
2021/07/20 10:19:00;;;;;;;13.70;10.03;;;;;;;;;;4927574;29;20477;-74
2021/07/20 10:21:29;;;;;;;11.80;9.53;;;;;;;;;;4911642;29;20462;-74
2021/07/20 10:23:57;;;;;;;11.73;10.20;;;;;;;;;;4929555;29;20538;-75
2021/07/20 10:26:29;;;;;;;12.87;10.27;;;;;;;;;;4929557;29;20467;-74
2021/07/20 10:29:00;;;;;;;10.50;9.10;;;;;;;;;;4930245;29;20475;-75
2021/07/20 10:31:31;;;;;;;11.47;9.03;;;;;;;;;;4930918;29;20490;-74
2021/07/20 10:34:03;;;;;;;12.20;9.27;;;;;;;;;;4931861;29;20469;-75
2021/07/20 10:36:31;;;;;;;12.63;10.23;;;;;;;;;;4932218;29;20590;-74
2021/07/20 10:39:01;;;;;;;14.03;9.13;;;;;;;;;;4913957;29;20573;-75
2021/07/20 10:41:31;;;;;;;13.10;9.83;;;;;;;;;;4910976;29;20470;-75
2021/07/20 10:44:01;;;;;;;11.93;8.67;;;;;;;;;;4932260;29;20459;-75
2021/07/20 10:46:32;;;;;;;15.73;10.33;;;;;;;;;;4914209;29;20447;-75
2021/07/20 10:49:03;;;;;;;13.20;9.97;;;;;;;;;;4932609;29;20472;-74
2021/07/20 10:51:33;;;;;;;10.43;9.30;;;;;;;;;;4933037;29;20486;-75
2021/07/20 10:54:03;;;;;;;11.70;9.00;;;;;;;;;;4933694;29;20466;-75
2021/07/20 10:56:33;;;;;;;12.83;9.33;;;;;;;;;;4917655;29;20490;-75
2021/07/20 10:59:07;;;;;;;14.93;9.60;;;;;;;;;;4922796;29;20482;-75
2021/07/20 11:01:35;;;;;;;10.50;8.63;;;;;;;;;;4930670;29;20469;-75
2021/07/20 11:04:09;;;;;;;15.23;10.77;;;;;;;;;;4931508;29;20451;-75
2021/07/20 11:06:38;;;;;;;12.47;9.07;;;;;;;;;;4932556;29;20458;-75
2021/07/20 11:09:07;;;;;;;11.80;9.50;;;;;;;;;;4933149;29;20476;-76
2021/07/20 11:11:39;;;;;;;13.80;9.57;;;;;;;;;;4932760;29;20998;-74
2021/07/20 11:14:07;;;;;;;14.23;10.27;;;;;;;;;;4915677;29;20435;-75
2021/07/20 11:16:34;;;;;;;14.87;10.03;;;;;;;;;;4927611;29;20450;-74
2021/07/20 11:19:03;;;;;;;11.63;9.80;;;;;;;;;;4935085;29;20474;-75
2021/07/20 11:21:32;;;;;;;12.77;9.90;;;;;;;;;;4931763;29;20447;-74
2021/07/20 11:24:00;;;;;;;13.17;9.37;;;;;;;;;;4932781;29;20446;-74
2021/07/20 11:26:28;;;;;;;16.07;11.30;;;;;;;;;;4927303;29;20468;-77
2021/07/20 11:28:55;;;;;;;10.53;9.20;;;;;;;;;;4914221;29;20475;-78
2021/07/20 11:31:26;;;;;;;11.87;9.97;;;;;;;;;;4927372;29;20470;-78
2021/07/20 11:33:55;;;;;;;10.73;8.90;;;;;;;;;;4899390;29;20455;-77
2021/07/20 11:36:24;;;;;;;12.30;8.50;;;;;;;;;;4932843;29;20446;-78
2021/07/20 11:38:55;;;;;;;15.10;9.80;;;;;;;;;;4933406;29;20465;-79
2021/07/20 11:41:30;;;;;;;10.63;8.40;;;;;;;;;;4935351;29;20508;-79
2021/07/20 11:44:01;;;;;;;10.20;8.40;;;;;;;;;;4934948;29;20460;-77
2021/07/20 11:46:37;;;;;;;12.63;9.17;;;;;;;;;;4931295;29;20463;-80
2021/07/20 11:49:06;;;;;;;11.90;9.13;;;;;;;;;;4918037;29;20880;-80
2021/07/20 11:51:37;;;;;;;10.07;8.87;;;;;;;;;;4932524;29;20482;-78
2021/07/20 11:54:09;;;;;;;10.07;8.80;;;;;;;;;;4923100;29;20469;-75
2021/07/20 11:56:41;;;;;;;10.27;9.00;;;;;;;;;;4934872;29;20940;-75
2021/07/20 11:59:32;;;;;;;14.27;8.60;;;;;;;;;;4911765;29;20905;-75
2021/07/20 12:02:23;;;;;;;13.00;9.47;;;;;;;;;;4918877;29;20469;-75
2021/07/20 12:04:59;;;;;;;11.73;8.20;;;;;;;;;;4935371;29;20438;-75
2021/07/20 12:07:29;;;;;;;12.67;9.37;;;;;;;;;;4932848;29;20450;-76
2021/07/20 12:10:13;;;;;;;9.90;8.07;;;;;;;;;;4924271;29;20462;-75
2021/07/20 12:12:48;;;;;;;11.00;9.20;;;;;;;;;;4932505;29;20892;-75
2021/07/20 12:15:16;;;;;;;11.70;8.73;;;;;;;;;;4935046;29;20457;-74
2021/07/20 12:17:44;;;;;;;11.83;9.90;;;;;;;;;;4910693;29;20496;-75
2021/07/20 12:20:12;;;;;;;13.47;9.87;;;;;;;;;;4901262;29;20455;-76
2021/07/20 12:22:40;;;;;;;12.23;9.10;;;;;;;;;;4917928;29;20466;-75
2021/07/20 12:25:09;;;;;;;12.60;9.03;;;;;;;;;;4924568;29;20462;-75
2021/07/20 12:27:37;;;;;;;11.97;8.80;;;;;;;;;;4919546;29;20470;-75
2021/07/20 12:30:05;;;;;;;10.73;8.83;;;;;;;;;;4905038;29;20496;-75
2021/07/20 12:32:32;;;;;;;12.20;8.33;;;;;;;;;;4932415;29;20489;-74
2021/07/20 12:34:59;;;;;;;10.30;9.17;;;;;;;;;;4934799;29;20820;-74
2021/07/20 12:37:26;;;;;;;10.70;8.30;;;;;;;;;;4926837;29;20482;-75
2021/07/20 12:39:57;;;;;;;10.87;8.87;;;;;;;;;;4936304;28;20497;-75
2021/07/20 12:42:33;;;;;;;13.70;9.63;;;;;;;;;;4955669;28;20990;-76
2021/07/20 12:45:04;;;;;;;13.33;8.83;;;;;;;;;;4931856;29;20454;-74
2021/07/20 12:47:38;;;;;;;11.27;8.70;;;;;;;;;;4936398;29;20466;-75
2021/07/20 12:50:05;;;;;;;13.70;9.40;;;;;;;;;;4932363;29;20479;-74
2021/07/20 12:52:36;;;;;;;10.20;7.60;;;;;;;;;;4927194;29;20586;-75
2021/07/20 12:55:07;;;;;;;10.03;8.60;;;;;;;;;;4931664;29;20471;-74
2021/07/20 12:57:35;;;;;;;12.67;9.17;;;;;;;;;;4921555;29;20474;-73
2021/07/20 13:00:03;;;;;;;14.27;9.63;;;;;;;;;;4919729;29;20509;-74
2021/07/20 13:02:31;;;;;;;12.73;10.20;;;;;;;;;;4926784;29;20473;-74
2021/07/20 13:04:58;;;;;;;13.00;8.80;;;;;;;;;;4923067;29;20474;-74
2021/07/20 13:07:26;;;;;;;12.70;8.60;;;;;;;;;;4918547;29;20466;-75
2021/07/20 13:09:54;;;;;;;10.50;7.60;;;;;;;;;;4921310;29;20472;-74
2021/07/20 13:12:22;;;;;;;10.90;8.37;;;;;;;;;;4932057;29;20486;-74
2021/07/20 13:14:51;;;;;;;9.83;7.87;;;;;;;;;;4914888;29;20990;-74
2021/07/20 13:17:18;;;;;;;10.20;8.47;;;;;;;;;;4927913;29;20462;-74
2021/07/20 13:19:46;;;;;;;11.90;9.20;;;;;;;;;;4931888;29;20438;-76
2021/07/20 13:22:21;;;;;;;11.40;9.03;;;;;;;;;;4930366;29;20470;-74
2021/07/20 13:24:48;;;;;;;10.60;9.13;;;;;;;;;;4912781;29;20944;-75
2021/07/20 13:27:18;;;;;;;12.30;8.47;;;;;;;;;;4933367;29;20460;-76
2021/07/20 13:29:45;;;;;;;9.53;7.83;;;;;;;;;;4926384;29;20463;-75
2021/07/20 13:32:14;;;;;;;11.10;7.80;;;;;;;;;;4931467;29;20991;-76
2021/07/20 13:34:41;;;;;;;11.50;8.60;;;;;;;;;;4930169;29;20453;-75
2021/07/20 13:37:09;;;;;;;10.10;7.57;;;;;;;;;;4925771;29;20493;-74
2021/07/20 13:39:37;;;;;;;12.17;8.10;;;;;;;;;;4925668;29;21086;-74
2021/07/20 13:42:04;;;;;;;12.20;8.40;;;;;;;;;;4932664;29;20439;-75
2021/07/20 13:44:32;;;;;;;10.87;7.60;;;;;;;;;;4926780;29;20834;-75
2021/07/20 13:47:01;;;;;;;8.57;7.50;;;;;;;;;;4931875;29;20806;-74
2021/07/20 13:49:31;;;;;;;10.93;7.13;;;;;;;;;;4923828;29;20470;-75
2021/07/20 13:52:00;;;;;;;11.03;7.77;;;;;;;;;;4897383;29;20451;-75
2021/07/20 13:54:27;;;;;;;7.90;6.67;;;;;;;;;;4913783;29;20457;-75
2021/07/20 13:56:56;;;;;;;12.60;8.47;;;;;;;;;;4923823;29;20469;-74
2021/07/20 13:59:29;;;;;;;9.27;7.17;;;;;;;;;;4933400;29;20489;-74
2021/07/20 14:01:57;;;;;;;9.90;8.90;;;;;;;;;;4909623;29;20610;-74
2021/07/20 14:04:24;;;;;;;9.70;7.00;;;;;;;;;;4928131;29;20553;-74
2021/07/20 14:06:54;;;;;;;10.23;8.50;;;;;;;;;;4924633;29;20465;-74
2021/07/20 14:09:21;;;;;;;8.73;7.40;;;;;;;;;;4927664;29;20585;-74
2021/07/20 14:11:48;;;;;;;12.00;7.20;;;;;;;;;;4909466;29;20466;-73
2021/07/20 14:14:16;;;;;;;9.10;6.60;;;;;;;;;;4930615;29;20513;-75
2021/07/20 14:16:44;;;;;;;12.60;8.50;;;;;;;;;;4930550;29;20465;-74
2021/07/20 14:19:12;;;;;;;10.37;7.93;;;;;;;;;;4906980;29;20497;-74
2021/07/20 14:21:40;;;;;;;8.80;6.60;;;;;;;;;;4916982;29;20458;-74
2021/07/20 14:24:09;;;;;;;12.03;7.50;;;;;;;;;;4920150;29;20473;-74
2021/07/20 14:26:37;;;;;;;10.53;7.13;;;;;;;;;;4913191;29;20470;-74
2021/07/20 14:29:05;;;;;;;12.00;7.87;;;;;;;;;;4903375;29;20471;-74
2021/07/20 14:31:33;;;;;;;10.37;7.50;;;;;;;;;;4920090;29;20447;-76
2021/07/20 14:34:02;;;;;;;8.10;7.03;;;;;;;;;;4910518;29;20498;-75
2021/07/20 14:36:37;;;;;;;10.23;7.70;;;;;;;;;;4934116;29;20504;-74
2021/07/20 14:39:05;;;;;;;12.93;7.90;;;;;;;;;;4923629;29;20505;-73
2021/07/20 14:41:34;;;;;;;10.37;7.37;;;;;;;;;;4935772;29;20467;-73